createdAt,value
2019-01-15T00:01:36.535Z,72.00
2019-01-15T00:04:08.144Z,70.00
2019-01-15T00:06:39.222Z,69.80
2019-01-15T00:09:11.037Z,71.60
2019-01-15T00:11:42.912Z,72.00
2019-01-15T00:14:14.489Z,71.20
2019-01-15T00:16:45.878Z,71.80
2019-01-15T00:19:17.143Z,71.80
2019-01-15T00:21:48.800Z,71.00
2019-01-15T00:24:20.965Z,72.00
2019-01-15T00:26:53.437Z,69.20
2019-01-15T00:29:24.593Z,69.00
2019-01-15T00:31:56.042Z,73.60
2019-01-15T00:34:27.474Z,69.00
2019-01-15T00:36:59.035Z,70.40
2019-01-15T00:39:31.083Z,73.80
2019-01-15T00:42:02.372Z,72.80
2019-01-15T00:44:33.778Z,71.40
2019-01-15T00:47:05.137Z,71.00
2019-01-15T00:49:36.436Z,75.00
2019-01-15T00:52:07.828Z,75.60
2019-01-15T00:54:39.911Z,77.80
2019-01-15T00:57:11.404Z,75.80
2019-01-15T00:59:42.660Z,78.00
2019-01-15T01:02:14.197Z,82.60
2019-01-15T01:04:45.447Z,75.20
2019-01-15T01:07:16.866Z,76.40
2019-01-15T01:09:48.390Z,75.40
2019-01-15T01:12:22.279Z,73.20
2019-01-15T01:14:52.562Z,80.60
2019-01-15T01:17:24.041Z,78.00
2019-01-15T01:19:55.480Z,84.40
2019-01-15T01:22:26.829Z,85.00
2019-01-15T01:24:58.233Z,84.80
2019-01-15T01:27:29.525Z,85.00
2019-01-15T01:30:00.878Z,93.00
2019-01-15T01:32:32.097Z,94.40
2019-01-15T01:35:03.559Z,95.80
2019-01-15T01:37:34.908Z,100.00
2019-01-15T01:40:11.321Z,99.60
2019-01-15T01:42:42.682Z,111.20
2019-01-15T01:45:14.678Z,109.20
2019-01-15T01:47:46.057Z,120.40
2019-01-15T01:50:17.716Z,121.60
2019-01-15T01:52:49.582Z,113.00
2019-01-15T01:55:20.831Z,99.80
2019-01-15T01:57:53.442Z,118.40
2019-01-15T02:00:25.103Z,105.60
2019-01-15T02:02:56.254Z,124.20
2019-01-15T02:05:28.050Z,124.80
2019-01-15T02:07:59.667Z,129.00
2019-01-15T02:10:31.453Z,130.60
2019-01-15T02:13:02.574Z,144.50
2019-01-15T02:15:34.159Z,144.00
2019-01-15T02:18:05.489Z,88.20
2019-01-15T02:20:37.434Z,111.60
2019-01-15T02:23:09.140Z,127.00
2019-01-15T02:25:40.816Z,121.20
2019-01-15T02:28:11.704Z,132.60
2019-01-15T02:30:42.953Z,137.40
2019-01-15T02:33:14.202Z,148.00
2019-01-15T02:35:45.639Z,161.60
2019-01-15T02:38:17.443Z,160.25
2019-01-15T02:40:48.800Z,154.75
2019-01-15T02:43:20.143Z,141.80
2019-01-15T02:45:52.037Z,147.60
2019-01-15T02:48:23.770Z,135.60
2019-01-15T02:50:55.176Z,140.40
2019-01-15T02:53:26.750Z,136.40
2019-01-15T02:55:58.477Z,132.60
2019-01-15T02:58:30.675Z,134.80
2019-01-15T03:01:02.002Z,127.20
2019-01-15T03:03:33.442Z,120.80
2019-01-15T03:06:05.526Z,115.80
2019-01-15T03:08:37.035Z,127.40
2019-01-15T03:11:08.781Z,113.00
2019-01-15T03:13:40.372Z,121.80
2019-01-15T03:16:11.793Z,121.80
2019-01-15T03:18:43.470Z,114.80
2019-01-15T03:21:14.866Z,109.40
2019-01-15T03:23:46.166Z,119.60
2019-01-15T03:26:17.963Z,115.80
2019-01-15T03:28:49.700Z,111.60
2019-01-15T03:31:21.013Z,112.00
2019-01-15T03:33:52.505Z,115.80
2019-01-15T03:36:23.794Z,112.00
2019-01-15T03:38:55.079Z,106.20
2019-01-15T03:41:26.199Z,111.40
2019-01-15T03:43:58.054Z,100.40
2019-01-15T03:46:29.648Z,120.00
2019-01-15T03:49:01.054Z,121.60
2019-01-15T03:51:33.476Z,127.20
2019-01-15T03:54:05.242Z,126.00
2019-01-15T03:56:36.954Z,119.60
2019-01-15T03:59:08.309Z,115.40
2019-01-15T04:01:39.711Z,115.60
2019-01-15T04:04:11.139Z,116.00
2019-01-15T04:06:43.175Z,123.40
2019-01-15T04:09:15.856Z,114.60
2019-01-15T04:11:47.137Z,119.60
2019-01-15T04:14:18.506Z,114.40
2019-01-15T04:16:49.802Z,104.80
2019-01-15T04:19:21.031Z,114.60
2019-01-15T04:21:52.377Z,116.40
2019-01-15T04:24:23.583Z,121.20
2019-01-15T04:26:56.263Z,116.00
2019-01-15T04:29:27.822Z,104.80
2019-01-15T04:31:59.215Z,114.20
2019-01-15T04:34:30.616Z,122.60
2019-01-15T04:37:01.958Z,104.20
2019-01-15T04:39:33.982Z,99.20
2019-01-15T04:42:05.675Z,107.60
2019-01-15T04:44:36.802Z,112.20
2019-01-15T04:47:07.948Z,114.80
2019-01-15T04:49:39.433Z,111.20
2019-01-15T04:52:10.945Z,105.80
2019-01-15T04:54:42.481Z,106.00
2019-01-15T04:57:14.136Z,109.40
2019-01-15T04:59:45.831Z,96.40
2019-01-15T05:02:17.221Z,100.40
2019-01-15T05:04:48.725Z,97.20
2019-01-15T05:07:20.276Z,97.00
2019-01-15T05:09:52.034Z,88.80
2019-01-15T05:12:24.184Z,98.80
2019-01-15T05:14:55.771Z,88.80
2019-01-15T05:17:27.314Z,89.60
2019-01-15T05:19:58.788Z,101.20
2019-01-15T05:22:30.158Z,91.00
2019-01-15T05:25:02.212Z,95.40
2019-01-15T05:27:33.494Z,99.60
2019-01-15T05:30:05.586Z,91.80
2019-01-15T05:32:37.513Z,84.00
2019-01-15T05:35:09.445Z,75.80
2019-01-15T05:37:41.119Z,85.40
2019-01-15T05:40:12.918Z,90.80
2019-01-15T05:42:45.083Z,84.00
2019-01-15T05:45:23.526Z,92.60
2019-01-15T05:47:55.624Z,86.60
2019-01-15T05:50:37.609Z,86.20
2019-01-15T05:53:08.943Z,88.00
2019-01-15T05:55:40.582Z,90.60
2019-01-15T05:58:12.255Z,89.40
2019-01-15T06:00:43.633Z,89.80
2019-01-15T06:03:15.483Z,101.20
2019-01-15T06:05:47.321Z,91.20
2019-01-15T06:08:18.782Z,89.60
2019-01-15T06:10:50.458Z,99.40
2019-01-15T06:13:21.935Z,96.40
2019-01-15T06:15:53.533Z,96.00
2019-01-15T06:18:24.990Z,101.20
2019-01-15T06:20:56.697Z,99.80
2019-01-15T06:23:28.274Z,96.80
2019-01-15T06:25:59.463Z,102.20
2019-01-15T06:28:31.252Z,110.60
2019-01-15T06:31:02.562Z,105.40
2019-01-15T06:33:34.330Z,99.80
2019-01-15T06:36:05.681Z,106.00
2019-01-15T06:38:37.181Z,109.00
2019-01-15T06:41:08.812Z,110.00
2019-01-15T06:43:41.836Z,105.80
2019-01-15T06:46:13.396Z,97.60
2019-01-15T06:48:44.949Z,114.80
2019-01-15T06:51:16.623Z,100.80
2019-01-15T06:53:47.931Z,104.40
2019-01-15T06:56:19.291Z,104.60
2019-01-15T06:58:53.713Z,99.00
2019-01-15T07:01:25.817Z,92.60
2019-01-15T07:03:57.554Z,99.00
2019-01-15T07:06:29.206Z,87.60
2019-01-15T07:09:00.810Z,91.80
2019-01-15T07:11:34.026Z,95.60
2019-01-15T07:14:05.946Z,84.60
2019-01-15T07:16:38.559Z,86.00
2019-01-15T07:19:10.004Z,87.20
2019-01-15T07:21:41.257Z,89.80
2019-01-15T07:24:13.417Z,94.40
2019-01-15T07:26:44.720Z,102.60
2019-01-15T07:29:16.119Z,96.80
2019-01-15T07:31:47.664Z,101.60
2019-01-15T07:34:19.532Z,97.60
2019-01-15T07:36:50.741Z,102.40
2019-01-15T07:39:23.216Z,94.40
2019-01-15T07:41:54.886Z,92.80
2019-01-15T07:44:26.261Z,95.80
2019-01-15T07:46:58.101Z,96.80
2019-01-15T07:49:29.623Z,90.60
2019-01-15T07:52:01.037Z,84.00
2019-01-15T07:54:32.516Z,83.40
2019-01-15T07:57:03.892Z,80.00
2019-01-15T07:59:35.544Z,90.20
2019-01-15T08:02:08.225Z,83.80
2019-01-15T08:04:39.905Z,83.80
2019-01-15T08:07:11.338Z,74.00
2019-01-15T08:09:42.897Z,75.80
2019-01-15T08:12:14.704Z,74.20
2019-01-15T08:14:46.224Z,80.00
2019-01-15T08:17:17.651Z,75.80
2019-01-15T08:19:48.752Z,71.20
2019-01-15T08:22:20.778Z,75.20
2019-01-15T08:24:52.536Z,74.20
2019-01-15T08:27:24.392Z,74.00
2019-01-15T08:29:55.599Z,78.60
2019-01-15T08:32:27.995Z,73.40
2019-01-15T08:34:59.336Z,74.40
2019-01-15T08:37:30.956Z,72.40
2019-01-15T08:40:02.441Z,72.20
2019-01-15T08:42:33.770Z,71.00
2019-01-15T08:45:06.225Z,76.20
2019-01-15T08:47:41.092Z,74.40
2019-01-15T08:50:13.018Z,71.00
2019-01-15T08:52:44.841Z,66.60
2019-01-15T08:55:16.203Z,67.80
2019-01-15T08:57:47.937Z,63.80
2019-01-15T09:00:19.534Z,59.60
2019-01-15T09:02:52.038Z,64.80
2019-01-15T09:05:23.659Z,68.60
2019-01-15T09:07:55.797Z,66.80
2019-01-15T09:10:27.245Z,64.60
2019-01-15T09:12:58.578Z,67.00
2019-01-15T09:15:30.538Z,64.40
2019-01-15T09:18:02.420Z,65.00
2019-01-15T09:20:33.932Z,64.40
2019-01-15T09:23:05.573Z,69.00
2019-01-15T09:25:37.977Z,67.00
2019-01-15T09:28:13.076Z,66.00
2019-01-15T09:30:46.696Z,66.00
2019-01-15T09:33:20.313Z,68.80
2019-01-15T09:35:53.537Z,71.20
2019-01-15T09:38:26.025Z,67.00
2019-01-15T09:41:00.091Z,67.60
2019-01-15T09:43:32.560Z,66.00
2019-01-15T09:46:04.291Z,66.80
2019-01-15T09:48:38.045Z,69.60
2019-01-15T09:51:09.807Z,69.20
2019-01-15T09:53:43.219Z,66.80
2019-01-15T09:56:15.171Z,65.40
2019-01-15T09:58:48.123Z,69.20
2019-01-15T10:01:20.497Z,70.20
2019-01-15T10:03:52.388Z,69.20
2019-01-15T10:06:27.216Z,68.60
2019-01-15T10:08:58.867Z,66.80
2019-01-15T10:11:30.616Z,65.60
2019-01-15T10:14:02.457Z,64.60
2019-01-15T10:16:33.930Z,64.60
2019-01-15T10:19:05.587Z,64.60
2019-01-15T10:21:37.210Z,64.60
2019-01-15T10:24:09.157Z,67.60
2019-01-15T10:26:40.606Z,58.60
2019-01-15T10:29:13.139Z,68.40
2019-01-15T10:32:26.857Z,68.20
2019-01-15T10:34:59.584Z,66.80
2019-01-15T10:37:31.191Z,64.40
2019-01-15T10:40:02.768Z,68.20
2019-01-15T10:42:34.533Z,63.40
2019-01-15T10:45:07.006Z,68.40
2019-01-15T10:47:39.357Z,65.20
2019-01-15T10:50:11.358Z,62.60
2019-01-15T10:52:43.197Z,64.20
2019-01-15T10:55:14.816Z,61.00
2019-01-15T10:57:46.402Z,64.60
2019-01-15T11:00:17.977Z,64.40
2019-01-15T11:02:49.411Z,62.20
2019-01-15T11:05:20.771Z,64.20
2019-01-15T11:07:52.338Z,67.00
2019-01-15T11:10:23.847Z,62.00
2019-01-15T11:12:55.184Z,61.60
2019-01-15T11:15:26.897Z,63.20
2019-01-15T11:17:58.960Z,62.40
2019-01-15T11:20:30.838Z,63.60
2019-01-15T11:23:02.301Z,69.60
2019-01-15T11:25:33.849Z,65.60
2019-01-15T11:28:06.957Z,70.40
2019-01-15T11:30:38.667Z,71.40
2019-01-15T11:33:10.532Z,70.60
2019-01-15T11:35:41.913Z,66.40
2019-01-15T11:38:13.551Z,73.20
2019-01-15T11:40:44.775Z,71.00
2019-01-15T11:43:17.857Z,76.40
2019-01-15T11:45:49.240Z,74.60
2019-01-15T11:48:21.611Z,73.60
2019-01-15T11:50:52.795Z,77.40
2019-01-15T11:53:24.268Z,75.40
2019-01-15T11:55:55.472Z,78.00
2019-01-15T11:58:27.039Z,78.40
2019-01-15T12:01:16.246Z,80.20
2019-01-15T12:04:16.253Z,71.20
2019-01-15T12:07:05.617Z,75.20
2019-01-15T12:09:54.890Z,73.60
2019-01-15T12:12:43.656Z,74.80
2019-01-15T12:15:28.010Z,75.20
2019-01-15T12:18:16.952Z,84.80
2019-01-15T12:21:19.134Z,84.80
2019-01-15T12:24:09.450Z,86.60
2019-01-15T12:27:04.561Z,89.60
2019-01-15T12:29:53.576Z,95.80
2019-01-15T12:32:44.589Z,107.00
2019-01-15T12:35:32.156Z,105.20
2019-01-15T12:38:25.586Z,127.20
2019-01-15T12:41:12.536Z,114.00
2019-01-15T12:44:21.624Z,127.00
2019-01-15T12:47:12.420Z,121.20
2019-01-15T12:50:01.699Z,120.80
2019-01-15T12:52:51.680Z,132.20
2019-01-15T12:55:40.841Z,134.80
2019-01-15T12:58:35.847Z,134.80
2019-01-15T13:01:29.311Z,147.80
2019-01-15T13:04:18.264Z,151.00
2019-01-15T13:07:19.853Z,158.80
2019-01-15T13:10:01.620Z,157.75
2019-01-15T13:13:02.043Z,179.75
2019-01-15T13:15:51.681Z,187.50
2019-01-15T13:18:44.717Z,205.00
2019-01-15T13:21:35.265Z,214.00
2019-01-15T13:24:40.822Z,210.00
2019-01-15T13:27:29.977Z,195.75
2019-01-15T13:30:25.956Z,198.75
2019-01-15T13:33:16.603Z,220.00
2019-01-15T13:36:04.958Z,210.25
2019-01-15T13:38:50.635Z,218.75
2019-01-15T13:41:49.663Z,201.75
2019-01-15T13:44:49.242Z,214.25
2019-01-15T13:47:39.739Z,225.75
2019-01-15T13:50:24.495Z,220.25
2019-01-15T13:53:30.351Z,235.75
2019-01-15T13:56:20.860Z,247.50
2019-01-15T13:59:23.092Z,244.75
2019-01-15T14:02:05.408Z,282.00
2019-01-15T14:05:10.643Z,303.00
2019-01-15T14:08:19.817Z,286.25
2019-01-15T14:11:25.319Z,325.75
2019-01-15T14:14:15.946Z,366.40
2019-01-15T14:17:03.160Z,409.40
2019-01-15T14:19:56.738Z,409.60
2019-01-15T14:22:49.891Z,381.40
2019-01-15T14:25:55.267Z,369.40
2019-01-15T14:28:52.086Z,347.75
2019-01-15T14:31:40.736Z,358.25
2019-01-15T14:34:30.220Z,342.00
2019-01-15T14:37:27.870Z,366.25
2019-01-15T14:40:30.775Z,356.75
2019-01-15T14:43:24.455Z,345.25
2019-01-15T14:46:20.604Z,346.25
2019-01-15T14:49:02.391Z,343.50
2019-01-15T14:52:10.801Z,344.50
2019-01-15T14:55:07.585Z,326.50
2019-01-15T14:57:56.685Z,412.60
2019-01-15T15:00:49.936Z,361.50
2019-01-15T15:03:32.786Z,370.25
2019-01-15T15:06:17.300Z,338.25
2019-01-15T15:09:06.580Z,323.25
2019-01-15T15:12:00.658Z,329.50
2019-01-15T15:14:45.141Z,324.00
2019-01-15T15:17:38.274Z,350.00
2019-01-15T15:20:32.112Z,322.75
2019-01-15T15:23:22.448Z,350.25
2019-01-15T15:26:24.204Z,335.75
2019-01-15T15:29:17.477Z,321.50
2019-01-15T15:32:06.024Z,347.75
2019-01-15T15:34:59.097Z,357.25
2019-01-15T15:37:50.184Z,350.50
2019-01-15T15:40:41.258Z,364.25
2019-01-15T15:43:34.743Z,388.25
2019-01-15T15:46:19.572Z,409.40
2019-01-15T15:49:13.199Z,402.00
2019-01-15T15:52:09.519Z,408.80
2019-01-15T15:55:14.868Z,415.80
2019-01-15T15:58:12.172Z,440.75
2019-01-15T16:01:01.025Z,442.25
2019-01-15T16:03:44.709Z,441.00
2019-01-15T16:06:49.379Z,449.20
2019-01-15T16:09:41.363Z,484.20
2019-01-15T16:12:31.886Z,514.20
2019-01-15T16:15:26.456Z,486.40
2019-01-15T16:18:15.748Z,495.80
2019-01-15T16:21:14.651Z,482.60
2019-01-15T16:24:19.714Z,529.60
2019-01-15T16:27:19.581Z,525.00
2019-01-15T16:30:11.707Z,499.80
2019-01-15T16:33:05.289Z,494.20
2019-01-15T16:36:07.475Z,537.60
2019-01-15T16:39:01.012Z,533.60
2019-01-15T16:41:51.809Z,556.00
2019-01-15T16:45:00.432Z,546.20
2019-01-15T16:47:57.680Z,525.00
2019-01-15T16:50:53.696Z,518.80
2019-01-15T16:53:41.251Z,554.40
2019-01-15T16:56:30.396Z,538.00
2019-01-15T16:59:20.839Z,528.80
2019-01-15T17:02:09.764Z,517.80
2019-01-15T17:05:15.605Z,473.40
2019-01-15T17:08:04.747Z,498.80
2019-01-15T17:10:55.284Z,513.40
2019-01-15T17:13:52.348Z,532.00
2019-01-15T17:16:51.957Z,515.20
2019-01-15T17:19:52.567Z,508.60
2019-01-15T17:22:42.994Z,506.00
2019-01-15T17:25:34.596Z,504.80
2019-01-15T17:28:23.765Z,519.60
2019-01-15T17:31:09.499Z,525.00
2019-01-15T17:33:58.810Z,508.60
2019-01-15T17:36:54.510Z,527.00
2019-01-15T17:39:43.691Z,518.20
2019-01-15T17:42:33.061Z,520.20
2019-01-15T17:45:32.877Z,529.40
2019-01-15T17:48:23.369Z,541.40
2019-01-15T17:51:26.185Z,504.40
2019-01-15T17:54:20.143Z,502.00
2019-01-15T17:57:26.702Z,513.00
2019-01-15T18:00:15.351Z,511.20
2019-01-15T18:03:06.612Z,539.40
2019-01-15T18:06:00.994Z,526.00
2019-01-15T18:08:53.596Z,502.80
2019-01-15T18:11:52.899Z,491.60
2019-01-15T18:14:52.738Z,522.60
2019-01-15T18:17:40.678Z,532.40
2019-01-15T18:20:41.087Z,533.00
2019-01-15T18:23:40.003Z,490.40
2019-01-15T18:26:28.623Z,509.80
2019-01-15T18:29:22.191Z,510.20
2019-01-15T18:32:06.858Z,508.00
2019-01-15T18:34:58.401Z,503.00
2019-01-15T18:37:36.895Z,515.60
2019-01-15T18:40:42.986Z,515.20
2019-01-15T18:43:32.423Z,513.20
2019-01-15T18:46:16.235Z,529.40
2019-01-15T18:49:12.716Z,508.00
2019-01-15T18:52:03.510Z,519.60
2019-01-15T18:54:57.484Z,505.00
2019-01-15T18:57:53.822Z,509.40
2019-01-15T19:00:53.138Z,510.40
2019-01-15T19:03:52.630Z,493.20
2019-01-15T19:06:41.089Z,503.75
2019-01-15T19:09:32.116Z,484.60
2019-01-15T19:12:25.346Z,460.20
2019-01-15T19:15:22.194Z,462.80
2019-01-15T19:18:11.043Z,472.80
2019-01-15T19:21:02.166Z,453.60
2019-01-15T19:23:50.911Z,456.60
2019-01-15T19:26:40.280Z,476.40
2019-01-15T19:29:39.489Z,463.40
2019-01-15T19:32:30.332Z,453.20
2019-01-15T19:35:23.483Z,460.60
2019-01-15T19:38:14.028Z,466.20
2019-01-15T19:41:16.535Z,475.60
2019-01-15T19:44:13.370Z,450.20
2019-01-15T19:47:10.466Z,465.00
2019-01-15T19:49:54.886Z,474.60
2019-01-15T19:52:43.234Z,444.20
2019-01-15T19:55:32.288Z,442.60
2019-01-15T19:58:32.300Z,461.80
2019-01-15T20:01:22.764Z,455.40
2019-01-15T20:04:19.017Z,431.60
2019-01-15T20:07:18.631Z,449.20
2019-01-15T20:10:09.030Z,456.20
2019-01-15T20:13:11.708Z,428.50
2019-01-15T20:16:01.287Z,434.00
2019-01-15T20:18:54.459Z,452.60
2019-01-15T20:21:43.805Z,483.00
2019-01-15T20:24:34.776Z,442.00
2019-01-15T20:27:28.494Z,417.00
2019-01-15T20:30:24.937Z,412.00
2019-01-15T20:33:17.980Z,402.75
2019-01-15T20:36:06.843Z,399.25
2019-01-15T20:38:52.719Z,428.50
2019-01-15T20:41:54.591Z,421.25
2019-01-15T20:44:51.019Z,438.75
2019-01-15T20:47:44.493Z,406.75
2019-01-15T20:50:33.544Z,422.25
2019-01-15T20:53:15.168Z,401.25
2019-01-15T20:55:59.896Z,425.25
2019-01-15T20:58:49.068Z,407.00
2019-01-15T21:01:33.251Z,372.00
2019-01-15T21:04:29.640Z,375.75
2019-01-15T21:07:18.511Z,398.25
2019-01-15T21:10:01.116Z,383.00
2019-01-15T21:12:50.492Z,375.00
2019-01-15T21:15:40.886Z,392.75
2019-01-15T21:18:34.345Z,375.50
2019-01-15T21:21:23.120Z,356.75
2019-01-15T21:24:28.537Z,395.50
2019-01-15T21:27:22.758Z,361.75
2019-01-15T21:30:13.842Z,357.50
2019-01-15T21:33:07.233Z,344.50
2019-01-15T21:35:56.069Z,341.50
2019-01-15T21:38:55.269Z,341.75
2019-01-15T21:41:36.532Z,338.00
2019-01-15T21:44:25.328Z,347.75
2019-01-15T21:47:25.527Z,355.00
2019-01-15T21:50:24.414Z,349.50
2019-01-15T21:53:33.029Z,347.25
2019-01-15T21:56:36.127Z,354.50
2019-01-15T21:59:32.250Z,337.75
2019-01-15T22:02:19.818Z,332.25
2019-01-15T22:05:16.323Z,324.50
2019-01-15T22:08:09.906Z,350.25
2019-01-15T22:11:06.034Z,348.50
2019-01-15T22:14:02.555Z,331.25
2019-01-15T22:17:02.068Z,340.50
2019-01-15T22:19:58.061Z,332.75
2019-01-15T22:22:48.888Z,347.00
2019-01-15T22:25:38.152Z,327.75
2019-01-15T22:28:27.657Z,348.00
2019-01-15T22:31:17.204Z,329.00
2019-01-15T22:34:00.459Z,329.25
2019-01-15T22:37:06.096Z,312.50
2019-01-15T22:39:59.241Z,332.25
2019-01-15T22:42:52.705Z,315.50
2019-01-15T22:45:44.432Z,310.00
2019-01-15T22:48:37.814Z,306.75
2019-01-15T22:51:43.848Z,309.75
2019-01-15T22:54:44.199Z,294.75
2019-01-15T22:57:27.880Z,314.25
2019-01-15T23:00:21.245Z,300.50
2019-01-15T23:03:11.058Z,282.25
2019-01-15T23:06:01.763Z,293.25
2019-01-15T23:08:52.185Z,305.25
2019-01-15T23:11:37.596Z,297.50
2019-01-15T23:14:26.191Z,281.00
2019-01-15T23:17:19.754Z,296.25
2019-01-15T23:20:10.039Z,282.25
2019-01-15T23:22:56.447Z,285.75
2019-01-15T23:25:44.985Z,296.50
2019-01-15T23:28:30.466Z,293.25
2019-01-15T23:31:15.449Z,288.75
2019-01-15T23:34:14.640Z,277.75
2019-01-15T23:37:05.955Z,276.00
2019-01-15T23:40:11.607Z,290.75
2019-01-15T23:42:53.617Z,282.00
2019-01-15T23:45:55.465Z,301.00
2019-01-15T23:48:40.890Z,282.50
2019-01-15T23:51:34.205Z,294.50
2019-01-15T23:54:36.368Z,305.00
2019-01-15T23:57:36.793Z,281.75
